Hartford, Connecticut
Traffic Map
Current Weather Conditions
Hartford, Connecticut
Overcast
Overcast
61°
Feels Like: 61°
Wind Chill: 61° Ceiling: 1500
Heat Index: 61° Visibility: 10mi
Dew Point: 56° Wind: 8mph
Humidity: 83% Direction: 350° (N)
Pressure: 29.78in Gusts: 0mph
Raw Report DataKHFD 262053Z 35007KT 10SM OVC015 16/13 A2978 RMK AO2 SLP082 T01610133 58009
Traffic Incident Summary
Active as of:
Severity:
Category:
InformationThere was an issue retrieving the traffic information for this location. Please try a different location or try again shortly.
Advertisements
Track Severe Weather on mobile